sensor_id;sensor_type;location;lat;lon;timestamp;P1;durP1;ratioP1;P2;durP2;ratioP2
68577;SDS011;61668;45.388;11.784;2022-11-15T00:01:51;37.10;;;19.20;;
68577;SDS011;61668;45.388;11.784;2022-11-15T00:04:17;36.70;;;17.80;;
68577;SDS011;61668;45.388;11.784;2022-11-15T00:06:42;36.40;;;17.70;;
68577;SDS011;61668;45.388;11.784;2022-11-15T00:09:08;35.30;;;18.50;;
68577;SDS011;61668;45.388;11.784;2022-11-15T00:11:33;36.60;;;17.30;;
68577;SDS011;61668;45.388;11.784;2022-11-15T00:13:59;36.10;;;17.50;;
68577;SDS011;61668;45.388;11.784;2022-11-15T00:16:27;39.90;;;19.70;;
68577;SDS011;61668;45.388;11.784;2022-11-15T00:18:53;39.20;;;18.10;;
68577;SDS011;61668;45.388;11.784;2022-11-15T00:21:18;36.20;;;17.90;;
68577;SDS011;61668;45.388;11.784;2022-11-15T00:23:44;38.10;;;18.50;;
68577;SDS011;61668;45.388;11.784;2022-11-15T00:26:12;33.60;;;16.60;;
68577;SDS011;61668;45.388;11.784;2022-11-15T00:28:39;32.90;;;16.80;;
68577;SDS011;61668;45.388;11.784;2022-11-15T00:31:07;36.10;;;17.10;;
68577;SDS011;61668;45.388;11.784;2022-11-15T00:33:34;39.80;;;17.20;;
68577;SDS011;61668;45.388;11.784;2022-11-15T00:36:04;35.00;;;16.60;;
68577;SDS011;61668;45.388;11.784;2022-11-15T00:38:35;35.40;;;18.10;;
68577;SDS011;61668;45.388;11.784;2022-11-15T00:41:03;33.70;;;16.70;;
68577;SDS011;61668;45.388;11.784;2022-11-15T00:43:29;34.00;;;17.30;;
68577;SDS011;61668;45.388;11.784;2022-11-15T00:45:55;33.60;;;16.40;;
68577;SDS011;61668;45.388;11.784;2022-11-15T00:48:21;35.40;;;17.30;;
68577;SDS011;61668;45.388;11.784;2022-11-15T00:50:47;35.20;;;17.00;;
68577;SDS011;61668;45.388;11.784;2022-11-15T00:53:13;35.00;;;17.00;;
68577;SDS011;61668;45.388;11.784;2022-11-15T00:55:39;43.60;;;17.20;;
68577;SDS011;61668;45.388;11.784;2022-11-15T00:58:04;34.00;;;15.80;;
68577;SDS011;61668;45.388;11.784;2022-11-15T01:00:30;32.40;;;16.20;;
68577;SDS011;61668;45.388;11.784;2022-11-15T01:02:55;41.10;;;17.80;;
68577;SDS011;61668;45.388;11.784;2022-11-15T01:05:22;35.40;;;16.80;;
68577;SDS011;61668;45.388;11.784;2022-11-15T01:07:51;35.30;;;17.30;;
68577;SDS011;61668;45.388;11.784;2022-11-15T01:10:18;30.40;;;14.90;;
68577;SDS011;61668;45.388;11.784;2022-11-15T01:12:43;32.20;;;17.10;;
68577;SDS011;61668;45.388;11.784;2022-11-15T01:15:09;36.90;;;16.40;;
68577;SDS011;61668;45.388;11.784;2022-11-15T01:17:34;33.50;;;17.10;;
68577;SDS011;61668;45.388;11.784;2022-11-15T01:20:00;35.90;;;17.50;;
68577;SDS011;61668;45.388;11.784;2022-11-15T01:22:26;36.30;;;18.30;;
68577;SDS011;61668;45.388;11.784;2022-11-15T01:24:51;34.80;;;17.90;;
68577;SDS011;61668;45.388;11.784;2022-11-15T01:27:17;33.50;;;16.60;;
68577;SDS011;61668;45.388;11.784;2022-11-15T01:29:43;37.80;;;18.60;;
68577;SDS011;61668;45.388;11.784;2022-11-15T01:32:08;34.60;;;17.10;;
68577;SDS011;61668;45.388;11.784;2022-11-15T01:34:34;37.30;;;17.90;;
68577;SDS011;61668;45.388;11.784;2022-11-15T01:37:00;34.40;;;17.70;;
68577;SDS011;61668;45.388;11.784;2022-11-15T01:39:25;34.70;;;17.50;;
68577;SDS011;61668;45.388;11.784;2022-11-15T01:41:51;33.40;;;17.90;;
68577;SDS011;61668;45.388;11.784;2022-11-15T01:44:40;36.90;;;19.30;;
68577;SDS011;61668;45.388;11.784;2022-11-15T01:47:16;38.30;;;18.30;;
68577;SDS011;61668;45.388;11.784;2022-11-15T01:49:50;33.50;;;15.90;;
68577;SDS011;61668;45.388;11.784;2022-11-15T01:52:24;32.50;;;17.30;;
68577;SDS011;61668;45.388;11.784;2022-11-15T01:54:56;34.70;;;17.40;;
68577;SDS011;61668;45.388;11.784;2022-11-15T01:57:23;35.70;;;17.80;;
68577;SDS011;61668;45.388;11.784;2022-11-15T01:59:48;36.10;;;16.80;;
68577;SDS011;61668;45.388;11.784;2022-11-15T02:02:14;36.70;;;17.30;;
68577;SDS011;61668;45.388;11.784;2022-11-15T02:04:45;34.50;;;15.70;;
68577;SDS011;61668;45.388;11.784;2022-11-15T02:07:15;34.10;;;15.70;;
68577;SDS011;61668;45.388;11.784;2022-11-15T02:09:43;31.90;;;15.50;;
68577;SDS011;61668;45.388;11.784;2022-11-15T02:12:10;34.10;;;17.30;;
68577;SDS011;61668;45.388;11.784;2022-11-15T02:14:47;29.60;;;14.30;;
68577;SDS011;61668;45.388;11.784;2022-11-15T02:17:19;32.20;;;15.90;;
68577;SDS011;61668;45.388;11.784;2022-11-15T02:26:32;29.30;;;14.80;;
68577;SDS011;61668;45.388;11.784;2022-11-15T02:29:10;36.50;;;15.90;;
68577;SDS011;61668;45.388;11.784;2022-11-15T02:34:56;32.70;;;16.00;;
68577;SDS011;61668;45.388;11.784;2022-11-15T02:37:51;34.30;;;16.60;;
68577;SDS011;61668;45.388;11.784;2022-11-15T02:40:52;34.70;;;17.60;;
68577;SDS011;61668;45.388;11.784;2022-11-15T02:43:26;31.00;;;15.20;;
68577;SDS011;61668;45.388;11.784;2022-11-15T02:46:22;38.10;;;17.10;;
68577;SDS011;61668;45.388;11.784;2022-11-15T02:49:11;36.60;;;16.50;;
68577;SDS011;61668;45.388;11.784;2022-11-15T02:51:38;39.40;;;17.90;;
68577;SDS011;61668;45.388;11.784;2022-11-15T02:54:04;37.50;;;16.60;;
68577;SDS011;61668;45.388;11.784;2022-11-15T02:56:30;35.60;;;16.70;;
68577;SDS011;61668;45.388;11.784;2022-11-15T03:09:23;36.50;;;17.30;;
68577;SDS011;61668;45.388;11.784;2022-11-15T03:11:38;38.60;;;17.20;;
68577;SDS011;61668;45.388;11.784;2022-11-15T03:14:28;40.00;;;17.50;;
68577;SDS011;61668;45.388;11.784;2022-11-15T03:19:53;36.60;;;16.70;;
68577;SDS011;61668;45.388;11.784;2022-11-15T03:22:22;35.80;;;16.30;;
68577;SDS011;61668;45.388;11.784;2022-11-15T03:24:52;37.80;;;18.10;;
68577;SDS011;61668;45.388;11.784;2022-11-15T03:27:23;34.40;;;16.60;;
68577;SDS011;61668;45.388;11.784;2022-11-15T03:29:54;36.20;;;16.90;;
68577;SDS011;61668;45.388;11.784;2022-11-15T03:32:32;36.90;;;16.10;;
68577;SDS011;61668;45.388;11.784;2022-11-15T03:35:05;33.40;;;15.50;;
68577;SDS011;61668;45.388;11.784;2022-11-15T03:40:35;35.50;;;16.80;;
68577;SDS011;61668;45.388;11.784;2022-11-15T03:46:10;35.70;;;16.20;;
68577;SDS011;61668;45.388;11.784;2022-11-15T03:49:20;38.60;;;17.30;;
68577;SDS011;61668;45.388;11.784;2022-11-15T03:51:56;37.30;;;17.00;;
68577;SDS011;61668;45.388;11.784;2022-11-15T03:54:22;40.20;;;18.30;;
68577;SDS011;61668;45.388;11.784;2022-11-15T03:56:48;41.90;;;18.60;;
68577;SDS011;61668;45.388;11.784;2022-11-15T03:59:13;38.40;;;17.30;;
68577;SDS011;61668;45.388;11.784;2022-11-15T04:01:39;42.40;;;19.40;;
68577;SDS011;61668;45.388;11.784;2022-11-15T04:04:04;35.80;;;15.30;;
68577;SDS011;61668;45.388;11.784;2022-11-15T04:06:30;34.20;;;15.50;;
68577;SDS011;61668;45.388;11.784;2022-11-15T04:08:55;36.90;;;15.80;;
68577;SDS011;61668;45.388;11.784;2022-11-15T04:11:20;35.60;;;17.30;;
68577;SDS011;61668;45.388;11.784;2022-11-15T04:13:46;31.40;;;14.90;;
68577;SDS011;61668;45.388;11.784;2022-11-15T04:16:11;34.20;;;16.60;;
68577;SDS011;61668;45.388;11.784;2022-11-15T04:18:37;33.40;;;15.90;;
68577;SDS011;61668;45.388;11.784;2022-11-15T04:21:03;31.40;;;14.90;;
68577;SDS011;61668;45.388;11.784;2022-11-15T04:23:47;30.80;;;14.30;;
68577;SDS011;61668;45.388;11.784;2022-11-15T04:26:33;30.60;;;15.00;;
68577;SDS011;61668;45.388;11.784;2022-11-15T04:28:58;30.30;;;15.30;;
68577;SDS011;61668;45.388;11.784;2022-11-15T04:31:42;26.70;;;13.60;;
68577;SDS011;61668;45.388;11.784;2022-11-15T04:34:08;25.80;;;12.70;;
68577;SDS011;61668;45.388;11.784;2022-11-15T04:36:33;30.00;;;13.90;;
68577;SDS011;61668;45.388;11.784;2022-11-15T04:39:18;27.50;;;12.50;;
68577;SDS011;61668;45.388;11.784;2022-11-15T04:41:43;31.10;;;14.30;;
68577;SDS011;61668;45.388;11.784;2022-11-15T04:44:09;34.30;;;14.50;;
68577;SDS011;61668;45.388;11.784;2022-11-15T04:46:35;28.10;;;13.40;;
68577;SDS011;61668;45.388;11.784;2022-11-15T04:49:00;28.60;;;13.90;;
68577;SDS011;61668;45.388;11.784;2022-11-15T04:51:26;30.30;;;13.30;;
68577;SDS011;61668;45.388;11.784;2022-11-15T04:53:51;30.80;;;14.30;;
68577;SDS011;61668;45.388;11.784;2022-11-15T04:56:16;25.10;;;11.30;;
68577;SDS011;61668;45.388;11.784;2022-11-15T04:58:42;24.90;;;11.80;;
68577;SDS011;61668;45.388;11.784;2022-11-15T05:01:12;26.70;;;11.50;;
68577;SDS011;61668;45.388;11.784;2022-11-15T05:03:42;29.80;;;13.90;;
68577;SDS011;61668;45.388;11.784;2022-11-15T05:06:27;31.00;;;13.80;;
68577;SDS011;61668;45.388;11.784;2022-11-15T05:08:52;35.70;;;14.60;;
68577;SDS011;61668;45.388;11.784;2022-11-15T05:11:18;29.70;;;13.70;;
68577;SDS011;61668;45.388;11.784;2022-11-15T05:13:45;29.50;;;13.40;;
68577;SDS011;61668;45.388;11.784;2022-11-15T05:16:11;26.90;;;12.70;;
68577;SDS011;61668;45.388;11.784;2022-11-15T05:18:36;30.10;;;14.00;;
68577;SDS011;61668;45.388;11.784;2022-11-15T05:21:07;29.80;;;14.30;;
68577;SDS011;61668;45.388;11.784;2022-11-15T05:23:35;27.20;;;12.70;;
68577;SDS011;61668;45.388;11.784;2022-11-15T05:26:01;26.60;;;13.20;;
68577;SDS011;61668;45.388;11.784;2022-11-15T05:28:28;26.20;;;12.20;;
68577;SDS011;61668;45.388;11.784;2022-11-15T05:31:00;27.00;;;12.00;;
68577;SDS011;61668;45.388;11.784;2022-11-15T05:33:30;22.10;;;10.50;;
68577;SDS011;61668;45.388;11.784;2022-11-15T05:36:31;25.00;;;11.40;;
68577;SDS011;61668;45.388;11.784;2022-11-15T05:39:00;23.10;;;11.80;;
68577;SDS011;61668;45.388;11.784;2022-11-15T05:41:44;22.10;;;10.20;;
68577;SDS011;61668;45.388;11.784;2022-11-15T05:44:20;27.60;;;11.70;;
68577;SDS011;61668;45.388;11.784;2022-11-15T05:46:48;25.80;;;13.00;;
68577;SDS011;61668;45.388;11.784;2022-11-15T05:49:16;25.50;;;11.80;;
68577;SDS011;61668;45.388;11.784;2022-11-15T05:51:44;24.80;;;11.40;;
68577;SDS011;61668;45.388;11.784;2022-11-15T05:54:11;24.00;;;12.10;;
68577;SDS011;61668;45.388;11.784;2022-11-15T05:56:37;21.50;;;10.60;;
68577;SDS011;61668;45.388;11.784;2022-11-15T05:59:03;23.40;;;9.60;;
68577;SDS011;61668;45.388;11.784;2022-11-15T06:01:29;21.30;;;10.00;;
68577;SDS011;61668;45.388;11.784;2022-11-15T06:03:55;23.00;;;10.30;;
68577;SDS011;61668;45.388;11.784;2022-11-15T06:06:20;24.30;;;10.80;;
68577;SDS011;61668;45.388;11.784;2022-11-15T06:08:46;21.10;;;9.10;;
68577;SDS011;61668;45.388;11.784;2022-11-15T06:11:13;20.10;;;8.90;;
68577;SDS011;61668;45.388;11.784;2022-11-15T06:13:38;21.50;;;9.90;;
68577;SDS011;61668;45.388;11.784;2022-11-15T06:16:05;20.50;;;9.30;;
68577;SDS011;61668;45.388;11.784;2022-11-15T06:18:34;20.70;;;9.70;;
68577;SDS011;61668;45.388;11.784;2022-11-15T06:21:00;19.00;;;9.30;;
68577;SDS011;61668;45.388;11.784;2022-11-15T06:23:27;23.20;;;11.20;;
68577;SDS011;61668;45.388;11.784;2022-11-15T06:25:53;23.00;;;10.20;;
68577;SDS011;61668;45.388;11.784;2022-11-15T06:28:22;20.00;;;9.70;;
68577;SDS011;61668;45.388;11.784;2022-11-15T06:30:48;25.50;;;11.90;;
68577;SDS011;61668;45.388;11.784;2022-11-15T06:33:13;19.40;;;8.90;;
68577;SDS011;61668;45.388;11.784;2022-11-15T06:35:39;18.90;;;7.90;;
68577;SDS011;61668;45.388;11.784;2022-11-15T06:38:06;15.90;;;7.70;;
68577;SDS011;61668;45.388;11.784;2022-11-15T06:40:35;19.50;;;9.90;;
68577;SDS011;61668;45.388;11.784;2022-11-15T06:43:02;21.20;;;10.10;;
68577;SDS011;61668;45.388;11.784;2022-11-15T06:45:28;24.50;;;11.30;;
68577;SDS011;61668;45.388;11.784;2022-11-15T06:47:54;20.00;;;10.00;;
68577;SDS011;61668;45.388;11.784;2022-11-15T06:50:19;21.10;;;10.00;;
68577;SDS011;61668;45.388;11.784;2022-11-15T06:52:45;21.20;;;8.70;;
68577;SDS011;61668;45.388;11.784;2022-11-15T06:55:11;18.60;;;8.50;;
68577;SDS011;61668;45.388;11.784;2022-11-15T06:57:36;19.20;;;9.40;;
68577;SDS011;61668;45.388;11.784;2022-11-15T07:00:04;20.90;;;9.70;;
68577;SDS011;61668;45.388;11.784;2022-11-15T07:02:30;22.60;;;11.10;;
68577;SDS011;61668;45.388;11.784;2022-11-15T07:04:56;25.20;;;12.20;;
68577;SDS011;61668;45.388;11.784;2022-11-15T07:07:21;23.90;;;12.30;;
68577;SDS011;61668;45.388;11.784;2022-11-15T07:09:47;19.90;;;10.70;;
68577;SDS011;61668;45.388;11.784;2022-11-15T07:12:12;22.30;;;10.40;;
68577;SDS011;61668;45.388;11.784;2022-11-15T07:14:38;19.20;;;9.10;;
68577;SDS011;61668;45.388;11.784;2022-11-15T07:17:04;17.40;;;8.70;;
68577;SDS011;61668;45.388;11.784;2022-11-15T07:19:30;19.30;;;8.80;;
68577;SDS011;61668;45.388;11.784;2022-11-15T07:21:56;18.40;;;8.50;;
68577;SDS011;61668;45.388;11.784;2022-11-15T07:24:21;19.40;;;9.10;;
68577;SDS011;61668;45.388;11.784;2022-11-15T07:26:47;22.50;;;11.00;;
68577;SDS011;61668;45.388;11.784;2022-11-15T07:29:12;21.80;;;10.00;;
68577;SDS011;61668;45.388;11.784;2022-11-15T07:31:38;19.30;;;9.20;;
68577;SDS011;61668;45.388;11.784;2022-11-15T07:34:04;21.30;;;9.40;;
68577;SDS011;61668;45.388;11.784;2022-11-15T07:36:29;18.70;;;8.30;;
68577;SDS011;61668;45.388;11.784;2022-11-15T07:38:55;18.30;;;8.90;;
68577;SDS011;61668;45.388;11.784;2022-11-15T07:41:20;18.60;;;8.80;;
68577;SDS011;61668;45.388;11.784;2022-11-15T07:43:46;19.50;;;8.80;;
68577;SDS011;61668;45.388;11.784;2022-11-15T07:46:12;17.50;;;7.90;;
68577;SDS011;61668;45.388;11.784;2022-11-15T07:48:38;18.70;;;8.80;;
68577;SDS011;61668;45.388;11.784;2022-11-15T07:51:06;19.20;;;9.50;;
68577;SDS011;61668;45.388;11.784;2022-11-15T07:53:32;18.40;;;9.10;;
68577;SDS011;61668;45.388;11.784;2022-11-15T07:55:57;19.80;;;8.90;;
68577;SDS011;61668;45.388;11.784;2022-11-15T07:58:23;15.00;;;8.50;;
68577;SDS011;61668;45.388;11.784;2022-11-15T08:00:48;16.80;;;7.70;;
68577;SDS011;61668;45.388;11.784;2022-11-15T08:03:15;15.10;;;7.20;;
68577;SDS011;61668;45.388;11.784;2022-11-15T08:05:43;15.60;;;7.70;;
68577;SDS011;61668;45.388;11.784;2022-11-15T08:08:10;15.00;;;7.20;;
68577;SDS011;61668;45.388;11.784;2022-11-15T08:10:36;17.70;;;7.70;;
68577;SDS011;61668;45.388;11.784;2022-11-15T08:13:05;18.80;;;8.40;;
68577;SDS011;61668;45.388;11.784;2022-11-15T08:15:33;19.20;;;8.90;;
68577;SDS011;61668;45.388;11.784;2022-11-15T08:18:02;20.80;;;9.20;;
68577;SDS011;61668;45.388;11.784;2022-11-15T08:20:30;17.60;;;8.40;;
68577;SDS011;61668;45.388;11.784;2022-11-15T08:22:56;19.10;;;9.40;;
68577;SDS011;61668;45.388;11.784;2022-11-15T08:25:23;20.40;;;9.40;;
68577;SDS011;61668;45.388;11.784;2022-11-15T08:27:56;21.70;;;10.10;;
68577;SDS011;61668;45.388;11.784;2022-11-15T08:30:23;19.40;;;8.90;;
68577;SDS011;61668;45.388;11.784;2022-11-15T08:32:50;20.90;;;9.50;;
68577;SDS011;61668;45.388;11.784;2022-11-15T08:35:17;21.50;;;10.00;;
68577;SDS011;61668;45.388;11.784;2022-11-15T08:37:44;19.90;;;9.40;;
68577;SDS011;61668;45.388;11.784;2022-11-15T08:40:10;21.50;;;11.10;;
68577;SDS011;61668;45.388;11.784;2022-11-15T08:42:36;22.40;;;11.10;;
68577;SDS011;61668;45.388;11.784;2022-11-15T08:45:02;23.30;;;9.20;;
68577;SDS011;61668;45.388;11.784;2022-11-15T08:47:28;22.60;;;10.50;;
68577;SDS011;61668;45.388;11.784;2022-11-15T08:49:54;19.60;;;9.40;;
68577;SDS011;61668;45.388;11.784;2022-11-15T08:52:20;23.50;;;10.20;;
68577;SDS011;61668;45.388;11.784;2022-11-15T08:54:46;20.00;;;8.90;;
68577;SDS011;61668;45.388;11.784;2022-11-15T08:57:12;22.50;;;10.60;;
68577;SDS011;61668;45.388;11.784;2022-11-15T08:59:37;20.80;;;9.70;;
68577;SDS011;61668;45.388;11.784;2022-11-15T09:02:04;20.60;;;9.10;;
68577;SDS011;61668;45.388;11.784;2022-11-15T09:04:30;23.50;;;11.20;;
68577;SDS011;61668;45.388;11.784;2022-11-15T09:06:55;20.00;;;10.20;;
68577;SDS011;61668;45.388;11.784;2022-11-15T09:09:21;22.30;;;10.90;;
68577;SDS011;61668;45.388;11.784;2022-11-15T09:11:47;21.70;;;10.50;;
68577;SDS011;61668;45.388;11.784;2022-11-15T09:14:13;19.00;;;9.50;;
68577;SDS011;61668;45.388;11.784;2022-11-15T09:16:39;21.60;;;10.20;;
68577;SDS011;61668;45.388;11.784;2022-11-15T09:19:05;18.30;;;8.60;;
68577;SDS011;61668;45.388;11.784;2022-11-15T09:21:31;21.10;;;9.90;;
68577;SDS011;61668;45.388;11.784;2022-11-15T09:23:57;20.70;;;9.40;;
68577;SDS011;61668;45.388;11.784;2022-11-15T09:26:24;18.50;;;9.40;;
68577;SDS011;61668;45.388;11.784;2022-11-15T09:28:49;18.80;;;9.50;;
68577;SDS011;61668;45.388;11.784;2022-11-15T09:31:15;22.50;;;11.00;;
68577;SDS011;61668;45.388;11.784;2022-11-15T09:33:43;22.90;;;10.80;;
68577;SDS011;61668;45.388;11.784;2022-11-15T09:36:10;23.80;;;10.90;;
68577;SDS011;61668;45.388;11.784;2022-11-15T09:38:36;21.40;;;9.90;;
68577;SDS011;61668;45.388;11.784;2022-11-15T09:49:01;19.00;;;9.00;;
68577;SDS011;61668;45.388;11.784;2022-11-15T09:51:34;18.10;;;9.60;;
68577;SDS011;61668;45.388;11.784;2022-11-15T10:03:08;21.70;;;10.70;;
68577;SDS011;61668;45.388;11.784;2022-11-15T10:05:48;22.00;;;10.60;;
68577;SDS011;61668;45.388;11.784;2022-11-15T10:09:13;21.00;;;10.60;;
68577;SDS011;61668;45.388;11.784;2022-11-15T10:11:24;22.60;;;11.40;;
68577;SDS011;61668;45.388;11.784;2022-11-15T10:13:55;24.70;;;11.60;;
68577;SDS011;61668;45.388;11.784;2022-11-15T10:22:15;21.60;;;10.70;;
68577;SDS011;61668;45.388;11.784;2022-11-15T10:24:44;22.80;;;11.10;;
68577;SDS011;61668;45.388;11.784;2022-11-15T10:27:13;23.80;;;11.40;;
68577;SDS011;61668;45.388;11.784;2022-11-15T10:29:48;25.30;;;11.40;;
68577;SDS011;61668;45.388;11.784;2022-11-15T10:32:18;19.80;;;9.70;;
68577;SDS011;61668;45.388;11.784;2022-11-15T10:34:47;23.80;;;11.60;;
68577;SDS011;61668;45.388;11.784;2022-11-15T10:37:13;25.50;;;11.80;;
68577;SDS011;61668;45.388;11.784;2022-11-15T10:39:39;22.50;;;11.20;;
68577;SDS011;61668;45.388;11.784;2022-11-15T10:42:29;23.70;;;12.00;;
68577;SDS011;61668;45.388;11.784;2022-11-15T10:44:55;24.70;;;11.80;;
68577;SDS011;61668;45.388;11.784;2022-11-15T10:47:26;24.50;;;11.80;;
68577;SDS011;61668;45.388;11.784;2022-11-15T10:50:03;25.00;;;11.20;;
68577;SDS011;61668;45.388;11.784;2022-11-15T10:52:33;22.90;;;10.10;;
68577;SDS011;61668;45.388;11.784;2022-11-15T10:55:05;22.00;;;10.00;;
68577;SDS011;61668;45.388;11.784;2022-11-15T10:57:52;20.40;;;10.70;;
68577;SDS011;61668;45.388;11.784;2022-11-15T11:06:15;21.70;;;10.70;;
68577;SDS011;61668;45.388;11.784;2022-11-15T11:09:03;22.90;;;11.00;;
68577;SDS011;61668;45.388;11.784;2022-11-15T11:11:48;23.10;;;10.80;;
68577;SDS011;61668;45.388;11.784;2022-11-15T11:14:26;25.60;;;12.60;;
68577;SDS011;61668;45.388;11.784;2022-11-15T11:37:33;23.30;;;11.60;;
68577;SDS011;61668;45.388;11.784;2022-11-15T11:40:39;23.80;;;12.40;;
68577;SDS011;61668;45.388;11.784;2022-11-15T11:43:32;22.00;;;11.30;;
68577;SDS011;61668;45.388;11.784;2022-11-15T11:49:09;21.10;;;10.90;;
68577;SDS011;61668;45.388;11.784;2022-11-15T11:51:47;20.70;;;11.40;;
68577;SDS011;61668;45.388;11.784;2022-11-15T11:54:22;21.70;;;11.50;;
68577;SDS011;61668;45.388;11.784;2022-11-15T11:56:57;21.30;;;11.40;;
68577;SDS011;61668;45.388;11.784;2022-11-15T12:02:25;21.20;;;11.20;;
68577;SDS011;61668;45.388;11.784;2022-11-15T12:05:20;24.40;;;11.20;;
68577;SDS011;61668;45.388;11.784;2022-11-15T12:07:53;23.40;;;11.70;;
68577;SDS011;61668;45.388;11.784;2022-11-15T12:10:29;21.50;;;11.30;;
68577;SDS011;61668;45.388;11.784;2022-11-15T12:13:03;22.60;;;12.10;;
68577;SDS011;61668;45.388;11.784;2022-11-15T12:15:39;21.10;;;10.10;;
68577;SDS011;61668;45.388;11.784;2022-11-15T12:18:12;22.30;;;12.20;;
68577;SDS011;61668;45.388;11.784;2022-11-15T12:20:51;22.70;;;11.70;;
68577;SDS011;61668;45.388;11.784;2022-11-15T12:24:05;21.90;;;12.50;;
68577;SDS011;61668;45.388;11.784;2022-11-15T12:26:38;21.10;;;11.00;;
68577;SDS011;61668;45.388;11.784;2022-11-15T12:29:37;21.20;;;11.40;;
68577;SDS011;61668;45.388;11.784;2022-11-15T12:32:28;23.70;;;12.20;;
68577;SDS011;61668;45.388;11.784;2022-11-15T12:34:58;21.90;;;12.10;;
68577;SDS011;61668;45.388;11.784;2022-11-15T12:58:56;24.00;;;11.20;;
68577;SDS011;61668;45.388;11.784;2022-11-15T13:06:45;21.60;;;11.20;;
68577;SDS011;61668;45.388;11.784;2022-11-15T13:14:44;19.10;;;9.30;;
68577;SDS011;61668;45.388;11.784;2022-11-15T13:19:47;19.90;;;9.70;;
68577;SDS011;61668;45.388;11.784;2022-11-15T13:22:14;25.90;;;12.30;;
68577;SDS011;61668;45.388;11.784;2022-11-15T13:25:00;24.00;;;11.80;;
68577;SDS011;61668;45.388;11.784;2022-11-15T13:27:26;19.70;;;10.00;;
68577;SDS011;61668;45.388;11.784;2022-11-15T13:29:52;25.30;;;11.80;;
68577;SDS011;61668;45.388;11.784;2022-11-15T13:32:18;21.10;;;10.50;;
68577;SDS011;61668;45.388;11.784;2022-11-15T13:34:47;22.60;;;9.50;;
68577;SDS011;61668;45.388;11.784;2022-11-15T13:39:46;23.80;;;10.80;;
68577;SDS011;61668;45.388;11.784;2022-11-15T13:42:20;22.60;;;10.90;;
68577;SDS011;61668;45.388;11.784;2022-11-15T13:45:04;22.80;;;11.40;;
68577;SDS011;61668;45.388;11.784;2022-11-15T13:47:31;23.30;;;11.00;;
68577;SDS011;61668;45.388;11.784;2022-11-15T13:49:58;24.60;;;11.90;;
68577;SDS011;61668;45.388;11.784;2022-11-15T13:52:32;23.30;;;11.50;;
68577;SDS011;61668;45.388;11.784;2022-11-15T14:05:33;23.20;;;12.30;;
68577;SDS011;61668;45.388;11.784;2022-11-15T14:08:12;23.40;;;11.20;;
68577;SDS011;61668;45.388;11.784;2022-11-15T14:11:15;25.10;;;13.10;;
68577;SDS011;61668;45.388;11.784;2022-11-15T14:19:05;23.70;;;12.60;;
68577;SDS011;61668;45.388;11.784;2022-11-15T14:21:32;23.10;;;14.90;;
68577;SDS011;61668;45.388;11.784;2022-11-15T14:24:18;24.20;;;12.70;;
68577;SDS011;61668;45.388;11.784;2022-11-15T14:26:45;23.70;;;12.00;;
68577;SDS011;61668;45.388;11.784;2022-11-15T14:29:28;27.40;;;15.20;;
68577;SDS011;61668;45.388;11.784;2022-11-15T14:32:17;26.10;;;13.80;;
68577;SDS011;61668;45.388;11.784;2022-11-15T14:34:45;29.30;;;15.60;;
68577;SDS011;61668;45.388;11.784;2022-11-15T14:37:32;27.10;;;16.00;;
68577;SDS011;61668;45.388;11.784;2022-11-15T14:40:03;25.90;;;13.80;;
68577;SDS011;61668;45.388;11.784;2022-11-15T14:42:31;30.90;;;16.80;;
68577;SDS011;61668;45.388;11.784;2022-11-15T14:44:57;25.50;;;13.80;;
68577;SDS011;61668;45.388;11.784;2022-11-15T14:47:23;23.20;;;12.20;;
68577;SDS011;61668;45.388;11.784;2022-11-15T14:49:49;23.60;;;13.40;;
68577;SDS011;61668;45.388;11.784;2022-11-15T14:52:34;26.40;;;13.80;;
68577;SDS011;61668;45.388;11.784;2022-11-15T14:55:03;26.20;;;13.40;;
68577;SDS011;61668;45.388;11.784;2022-11-15T14:57:59;25.90;;;12.70;;
68577;SDS011;61668;45.388;11.784;2022-11-15T15:00:24;25.70;;;14.30;;
68577;SDS011;61668;45.388;11.784;2022-11-15T15:02:52;27.00;;;14.00;;
68577;SDS011;61668;45.388;11.784;2022-11-15T15:05:39;26.30;;;14.00;;
68577;SDS011;61668;45.388;11.784;2022-11-15T15:08:06;29.70;;;15.60;;
68577;SDS011;61668;45.388;11.784;2022-11-15T15:10:38;37.10;;;17.30;;
68577;SDS011;61668;45.388;11.784;2022-11-15T15:13:16;41.70;;;18.40;;
68577;SDS011;61668;45.388;11.784;2022-11-15T15:15:42;31.60;;;15.20;;
68577;SDS011;61668;45.388;11.784;2022-11-15T15:18:07;31.70;;;14.70;;
68577;SDS011;61668;45.388;11.784;2022-11-15T15:20:35;27.90;;;14.50;;
68577;SDS011;61668;45.388;11.784;2022-11-15T15:23:02;25.50;;;12.30;;
68577;SDS011;61668;45.388;11.784;2022-11-15T15:25:33;25.00;;;11.90;;
68577;SDS011;61668;45.388;11.784;2022-11-15T15:28:00;23.80;;;12.00;;
68577;SDS011;61668;45.388;11.784;2022-11-15T15:30:28;22.40;;;11.20;;
68577;SDS011;61668;45.388;11.784;2022-11-15T15:32:55;25.00;;;12.10;;
68577;SDS011;61668;45.388;11.784;2022-11-15T15:35:21;22.90;;;12.30;;
68577;SDS011;61668;45.388;11.784;2022-11-15T15:37:48;23.80;;;14.20;;
68577;SDS011;61668;45.388;11.784;2022-11-15T15:40:22;24.70;;;13.80;;
68577;SDS011;61668;45.388;11.784;2022-11-15T15:42:49;22.40;;;11.30;;
68577;SDS011;61668;45.388;11.784;2022-11-15T15:45:16;28.00;;;14.90;;
68577;SDS011;61668;45.388;11.784;2022-11-15T15:47:43;27.40;;;14.00;;
68577;SDS011;61668;45.388;11.784;2022-11-15T15:52:44;27.00;;;15.10;;
68577;SDS011;61668;45.388;11.784;2022-11-15T15:55:09;27.90;;;14.70;;
68577;SDS011;61668;45.388;11.784;2022-11-15T15:57:35;26.70;;;13.90;;
68577;SDS011;61668;45.388;11.784;2022-11-15T16:00:03;50.20;;;34.40;;
68577;SDS011;61668;45.388;11.784;2022-11-15T16:02:29;85.80;;;64.40;;
68577;SDS011;61668;45.388;11.784;2022-11-15T16:04:55;36.10;;;25.80;;
68577;SDS011;61668;45.388;11.784;2022-11-15T16:07:21;34.40;;;19.90;;
68577;SDS011;61668;45.388;11.784;2022-11-15T16:09:50;43.00;;;26.50;;
68577;SDS011;61668;45.388;11.784;2022-11-15T16:12:26;35.10;;;20.60;;
68577;SDS011;61668;45.388;11.784;2022-11-15T16:14:52;32.00;;;17.40;;
68577;SDS011;61668;45.388;11.784;2022-11-15T16:17:23;35.50;;;21.60;;
68577;SDS011;61668;45.388;11.784;2022-11-15T16:19:52;33.80;;;18.30;;
68577;SDS011;61668;45.388;11.784;2022-11-15T16:22:17;31.50;;;17.60;;
68577;SDS011;61668;45.388;11.784;2022-11-15T16:24:43;36.50;;;24.70;;
68577;SDS011;61668;45.388;11.784;2022-11-15T16:27:16;46.30;;;36.40;;
68577;SDS011;61668;45.388;11.784;2022-11-15T16:29:43;33.50;;;19.10;;
68577;SDS011;61668;45.388;11.784;2022-11-15T16:32:09;39.10;;;28.70;;
68577;SDS011;61668;45.388;11.784;2022-11-15T16:34:35;34.20;;;18.70;;
68577;SDS011;61668;45.388;11.784;2022-11-15T16:37:01;32.90;;;18.10;;
68577;SDS011;61668;45.388;11.784;2022-11-15T16:39:26;35.60;;;18.10;;
68577;SDS011;61668;45.388;11.784;2022-11-15T16:41:56;33.50;;;20.30;;
68577;SDS011;61668;45.388;11.784;2022-11-15T16:44:24;40.80;;;26.80;;
68577;SDS011;61668;45.388;11.784;2022-11-15T16:46:51;31.40;;;18.30;;
68577;SDS011;61668;45.388;11.784;2022-11-15T16:49:18;46.80;;;31.80;;